sensor_id;sensor_type;location;lat;lon;timestamp;temperature;humidity
20566;DHT22;10441;50.884;12.064;2022-10-19T01:00:41;10.60;99.90
20566;DHT22;10441;50.884;12.064;2022-10-19T01:03:08;10.60;99.90
20566;DHT22;10441;50.884;12.064;2022-10-19T01:05:36;10.60;99.90
20566;DHT22;10441;50.884;12.064;2022-10-19T01:08:03;10.60;99.90
20566;DHT22;10441;50.884;12.064;2022-10-19T01:10:36;10.60;99.90
20566;DHT22;10441;50.884;12.064;2022-10-19T01:13:10;10.60;99.90
20566;DHT22;10441;50.884;12.064;2022-10-19T01:15:43;10.50;99.90
20566;DHT22;10441;50.884;12.064;2022-10-19T01:18:15;10.40;99.90
20566;DHT22;10441;50.884;12.064;2022-10-19T01:23:55;10.10;99.90
20566;DHT22;10441;50.884;12.064;2022-10-19T01:26:45;11.30;99.90
20566;DHT22;10441;50.884;12.064;2022-10-19T01:29:16;9.90;99.90
20566;DHT22;10441;50.884;12.064;2022-10-19T01:31:51;9.90;99.90
20566;DHT22;10441;50.884;12.064;2022-10-19T01:34:22;9.80;99.90
20566;DHT22;10441;50.884;12.064;2022-10-19T01:36:53;9.80;99.90
20566;DHT22;10441;50.884;12.064;2022-10-19T01:39:23;9.80;99.90
20566;DHT22;10441;50.884;12.064;2022-10-19T01:41:54;9.80;99.90
20566;DHT22;10441;50.884;12.064;2022-10-19T01:44:24;9.80;99.90
20566;DHT22;10441;50.884;12.064;2022-10-19T01:46:55;9.80;99.90
20566;DHT22;10441;50.884;12.064;2022-10-19T01:49:24;9.80;99.90
20566;DHT22;10441;50.884;12.064;2022-10-19T01:51:53;9.90;99.90
20566;DHT22;10441;50.884;12.064;2022-10-19T01:54:21;9.80;99.90
20566;DHT22;10441;50.884;12.064;2022-10-19T01:56:48;9.90;99.90
20566;DHT22;10441;50.884;12.064;2022-10-19T01:59:16;9.90;99.90
20566;DHT22;10441;50.884;12.064;2022-10-19T02:01:45;9.90;99.90
20566;DHT22;10441;50.884;12.064;2022-10-19T02:04:14;10.00;99.90
20566;DHT22;10441;50.884;12.064;2022-10-19T02:06:42;10.10;99.90
20566;DHT22;10441;50.884;12.064;2022-10-19T02:09:09;10.00;99.90
20566;DHT22;10441;50.884;12.064;2022-10-19T02:11:42;10.10;99.90
20566;DHT22;10441;50.884;12.064;2022-10-19T02:14:13;10.00;99.90
20566;DHT22;10441;50.884;12.064;2022-10-19T02:16:41;10.00;99.90
20566;DHT22;10441;50.884;12.064;2022-10-19T02:19:11;10.00;99.90
20566;DHT22;10441;50.884;12.064;2022-10-19T02:21:42;10.00;99.90
20566;DHT22;10441;50.884;12.064;2022-10-19T02:24:08;10.10;99.90
20566;DHT22;10441;50.884;12.064;2022-10-19T02:26:35;10.10;99.90
20566;DHT22;10441;50.884;12.064;2022-10-19T02:29:03;10.10;99.90
20566;DHT22;10441;50.884;12.064;2022-10-19T02:31:29;10.10;99.90
20566;DHT22;10441;50.884;12.064;2022-10-19T02:33:56;10.10;99.90
20566;DHT22;10441;50.884;12.064;2022-10-19T02:36:23;10.20;99.90
20566;DHT22;10441;50.884;12.064;2022-10-19T02:38:51;10.10;99.90
20566;DHT22;10441;50.884;12.064;2022-10-19T02:41:20;10.10;99.90
20566;DHT22;10441;50.884;12.064;2022-10-19T02:43:51;10.20;99.90
20566;DHT22;10441;50.884;12.064;2022-10-19T02:46:22;10.10;99.90
20566;DHT22;10441;50.884;12.064;2022-10-19T02:48:51;10.10;99.90
20566;DHT22;10441;50.884;12.064;2022-10-19T02:51:28;10.10;99.90
20566;DHT22;10441;50.884;12.064;2022-10-19T02:53:57;10.10;99.90
20566;DHT22;10441;50.884;12.064;2022-10-19T02:56:24;10.00;99.90
20566;DHT22;10441;50.884;12.064;2022-10-19T02:58:50;9.90;99.90
20566;DHT22;10441;50.884;12.064;2022-10-19T03:59:19;9.40;99.90
20566;DHT22;10441;50.884;12.064;2022-10-19T04:01:47;9.30;99.90
20566;DHT22;10441;50.884;12.064;2022-10-19T04:04:15;9.30;99.90
20566;DHT22;10441;50.884;12.064;2022-10-19T04:06:42;9.40;99.90
20566;DHT22;10441;50.884;12.064;2022-10-19T04:09:10;9.30;99.90
20566;DHT22;10441;50.884;12.064;2022-10-19T04:11:38;9.30;99.90
20566;DHT22;10441;50.884;12.064;2022-10-19T04:14:05;9.20;99.90
20566;DHT22;10441;50.884;12.064;2022-10-19T04:16:33;9.20;99.90
20566;DHT22;10441;50.884;12.064;2022-10-19T04:19:00;9.20;99.90
20566;DHT22;10441;50.884;12.064;2022-10-19T04:21:27;9.20;99.90
20566;DHT22;10441;50.884;12.064;2022-10-19T04:23:56;9.10;99.90
20566;DHT22;10441;50.884;12.064;2022-10-19T04:26:23;9.10;99.90
20566;DHT22;10441;50.884;12.064;2022-10-19T04:28:50;9.00;99.90
20566;DHT22;10441;50.884;12.064;2022-10-19T04:31:18;9.10;99.90
20566;DHT22;10441;50.884;12.064;2022-10-19T04:33:48;9.00;99.90
20566;DHT22;10441;50.884;12.064;2022-10-19T04:36:15;9.00;99.90
20566;DHT22;10441;50.884;12.064;2022-10-19T04:38:42;8.90;99.90
20566;DHT22;10441;50.884;12.064;2022-10-19T04:41:09;8.90;99.90
20566;DHT22;10441;50.884;12.064;2022-10-19T04:43:36;9.00;99.90
20566;DHT22;10441;50.884;12.064;2022-10-19T04:46:04;8.90;99.90
20566;DHT22;10441;50.884;12.064;2022-10-19T04:48:31;9.00;99.90
20566;DHT22;10441;50.884;12.064;2022-10-19T04:51:00;8.90;99.90
20566;DHT22;10441;50.884;12.064;2022-10-19T04:53:27;8.90;99.90
20566;DHT22;10441;50.884;12.064;2022-10-19T04:55:54;9.00;99.90
20566;DHT22;10441;50.884;12.064;2022-10-19T04:58:22;8.90;99.90
20566;DHT22;10441;50.884;12.064;2022-10-19T05:00:49;8.90;99.90
20566;DHT22;10441;50.884;12.064;2022-10-19T05:03:17;8.90;99.90
20566;DHT22;10441;50.884;12.064;2022-10-19T05:05:44;8.90;99.90
20566;DHT22;10441;50.884;12.064;2022-10-19T05:08:12;8.90;99.90
20566;DHT22;10441;50.884;12.064;2022-10-19T05:10:39;8.90;99.90
20566;DHT22;10441;50.884;12.064;2022-10-19T05:13:06;8.90;99.90
20566;DHT22;10441;50.884;12.064;2022-10-19T05:15:33;8.90;99.90
20566;DHT22;10441;50.884;12.064;2022-10-19T05:17:59;8.90;99.90
20566;DHT22;10441;50.884;12.064;2022-10-19T05:20:26;8.80;99.90
20566;DHT22;10441;50.884;12.064;2022-10-19T05:22:53;8.80;99.90
20566;DHT22;10441;50.884;12.064;2022-10-19T05:25:21;8.80;99.90
20566;DHT22;10441;50.884;12.064;2022-10-19T05:27:51;8.80;99.90
20566;DHT22;10441;50.884;12.064;2022-10-19T05:30:18;8.80;99.90
20566;DHT22;10441;50.884;12.064;2022-10-19T05:32:49;8.70;99.90
20566;DHT22;10441;50.884;12.064;2022-10-19T05:35:16;8.80;99.90
20566;DHT22;10441;50.884;12.064;2022-10-19T05:37:42;8.80;99.90
20566;DHT22;10441;50.884;12.064;2022-10-19T05:40:09;8.80;99.90
20566;DHT22;10441;50.884;12.064;2022-10-19T05:42:42;8.70;99.90
20566;DHT22;10441;50.884;12.064;2022-10-19T05:45:09;8.70;99.90
20566;DHT22;10441;50.884;12.064;2022-10-19T05:47:37;8.70;99.90
20566;DHT22;10441;50.884;12.064;2022-10-19T05:50:04;8.60;99.90
20566;DHT22;10441;50.884;12.064;2022-10-19T05:52:31;8.60;99.90
20566;DHT22;10441;50.884;12.064;2022-10-19T05:54:58;8.60;99.90
20566;DHT22;10441;50.884;12.064;2022-10-19T05:57:25;8.60;99.90
20566;DHT22;10441;50.884;12.064;2022-10-19T10:02:57;15.30;1.00
20566;DHT22;10441;50.884;12.064;2022-10-19T10:05:28;15.00;1.00
20566;DHT22;10441;50.884;12.064;2022-10-19T10:07:57;14.40;1.00
20566;DHT22;10441;50.884;12.064;2022-10-19T10:10:27;13.70;1.00
20566;DHT22;10441;50.884;12.064;2022-10-19T10:13:00;13.10;1.00
20566;DHT22;10441;50.884;12.064;2022-10-19T10:15:29;12.90;1.00
20566;DHT22;10441;50.884;12.064;2022-10-19T10:18:02;13.30;1.00
20566;DHT22;10441;50.884;12.064;2022-10-19T10:20:30;13.40;1.00
20566;DHT22;10441;50.884;12.064;2022-10-19T10:22:58;13.60;1.00
20566;DHT22;10441;50.884;12.064;2022-10-19T10:25:28;13.40;1.00
20566;DHT22;10441;50.884;12.064;2022-10-19T10:27:57;13.50;1.00
20566;DHT22;10441;50.884;12.064;2022-10-19T10:30:25;13.40;1.00
20566;DHT22;10441;50.884;12.064;2022-10-19T10:32:53;13.40;1.00
20566;DHT22;10441;50.884;12.064;2022-10-19T10:35:22;13.50;1.00
20566;DHT22;10441;50.884;12.064;2022-10-19T10:37:50;12.70;1.00
20566;DHT22;10441;50.884;12.064;2022-10-19T10:40:22;12.50;1.00
20566;DHT22;10441;50.884;12.064;2022-10-19T10:42:50;12.80;1.00
20566;DHT22;10441;50.884;12.064;2022-10-19T10:45:18;13.20;1.00
20566;DHT22;10441;50.884;12.064;2022-10-19T10:47:46;13.10;1.00
20566;DHT22;10441;50.884;12.064;2022-10-19T10:50:19;12.70;1.00
20566;DHT22;10441;50.884;12.064;2022-10-19T10:52:59;12.80;1.00
20566;DHT22;10441;50.884;12.064;2022-10-19T10:55:26;12.90;1.00
20566;DHT22;10441;50.884;12.064;2022-10-19T10:58:03;12.90;1.00
20566;DHT22;10441;50.884;12.064;2022-10-19T11:00:32;13.40;1.00
20566;DHT22;10441;50.884;12.064;2022-10-19T12:03:52;13.80;1.00
20566;DHT22;10441;50.884;12.064;2022-10-19T12:06:25;13.30;1.00
20566;DHT22;10441;50.884;12.064;2022-10-19T12:09:04;13.10;1.00
20566;DHT22;10441;50.884;12.064;2022-10-19T12:11:39;13.40;1.00
20566;DHT22;10441;50.884;12.064;2022-10-19T12:14:10;13.50;1.00
20566;DHT22;10441;50.884;12.064;2022-10-19T12:16:40;14.00;1.00
20566;DHT22;10441;50.884;12.064;2022-10-19T12:19:11;14.30;1.00
20566;DHT22;10441;50.884;12.064;2022-10-19T12:21:42;14.30;1.00
20566;DHT22;10441;50.884;12.064;2022-10-19T12:24:15;14.00;1.00
20566;DHT22;10441;50.884;12.064;2022-10-19T12:26:42;13.70;1.00
20566;DHT22;10441;50.884;12.064;2022-10-19T12:29:12;14.20;1.00
20566;DHT22;10441;50.884;12.064;2022-10-19T12:31:40;14.10;1.00
20566;DHT22;10441;50.884;12.064;2022-10-19T12:34:13;13.80;1.00
20566;DHT22;10441;50.884;12.064;2022-10-19T12:36:45;13.50;1.00
20566;DHT22;10441;50.884;12.064;2022-10-19T12:39:14;13.80;1.00
20566;DHT22;10441;50.884;12.064;2022-10-19T12:41:45;13.50;1.00
20566;DHT22;10441;50.884;12.064;2022-10-19T12:44:34;13.60;1.00
20566;DHT22;10441;50.884;12.064;2022-10-19T12:47:07;13.80;1.00
20566;DHT22;10441;50.884;12.064;2022-10-19T12:49:44;14.10;1.00
20566;DHT22;10441;50.884;12.064;2022-10-19T12:52:12;13.50;1.00
20566;DHT22;10441;50.884;12.064;2022-10-19T12:54:40;13.40;1.00
20566;DHT22;10441;50.884;12.064;2022-10-19T12:57:19;13.50;1.00
20566;DHT22;10441;50.884;12.064;2022-10-19T12:59:47;13.30;1.00
20566;DHT22;10441;50.884;12.064;2022-10-19T13:02:24;13.00;1.00
20566;DHT22;10441;50.884;12.064;2022-10-19T13:04:54;12.80;1.00
20566;DHT22;10441;50.884;12.064;2022-10-19T13:07:20;12.90;1.00
20566;DHT22;10441;50.884;12.064;2022-10-19T13:09:50;13.00;1.00
20566;DHT22;10441;50.884;12.064;2022-10-19T13:12:28;12.90;1.00
20566;DHT22;10441;50.884;12.064;2022-10-19T13:14:55;12.80;1.00
20566;DHT22;10441;50.884;12.064;2022-10-19T13:17:38;13.00;1.00
20566;DHT22;10441;50.884;12.064;2022-10-19T13:23:29;13.00;1.00
20566;DHT22;10441;50.884;12.064;2022-10-19T13:25:38;13.00;1.00
20566;DHT22;10441;50.884;12.064;2022-10-19T14:31:39;12.30;1.00
20566;DHT22;10441;50.884;12.064;2022-10-19T14:34:07;12.40;1.00
20566;DHT22;10441;50.884;12.064;2022-10-19T14:36:45;12.30;1.00
20566;DHT22;10441;50.884;12.064;2022-10-19T14:39:25;12.40;1.00
20566;DHT22;10441;50.884;12.064;2022-10-19T14:41:54;12.50;1.00
20566;DHT22;10441;50.884;12.064;2022-10-19T14:44:38;12.30;99.90
20566;DHT22;10441;50.884;12.064;2022-10-19T14:47:23;12.20;99.90
20566;DHT22;10441;50.884;12.064;2022-10-19T14:49:52;12.20;1.00
20566;DHT22;10441;50.884;12.064;2022-10-19T14:52:21;12.30;1.00
20566;DHT22;10441;50.884;12.064;2022-10-19T14:54:54;12.20;99.90
20566;DHT22;10441;50.884;12.064;2022-10-19T14:57:24;12.10;99.90
20566;DHT22;10441;50.884;12.064;2022-10-19T14:59:55;12.40;99.90
20566;DHT22;10441;50.884;12.064;2022-10-19T15:05:12;12.00;99.90
20566;DHT22;10441;50.884;12.064;2022-10-19T15:07:41;12.00;99.90
20566;DHT22;10441;50.884;12.064;2022-10-19T15:10:15;12.00;99.90
20566;DHT22;10441;50.884;12.064;2022-10-19T15:12:44;12.00;99.90
20566;DHT22;10441;50.884;12.064;2022-10-19T15:15:27;12.00;99.90
20566;DHT22;10441;50.884;12.064;2022-10-19T15:17:56;11.80;99.90
20566;DHT22;10441;50.884;12.064;2022-10-19T15:20:46;11.90;99.90
20566;DHT22;10441;50.884;12.064;2022-10-19T15:23:35;11.80;1.00
20566;DHT22;10441;50.884;12.064;2022-10-19T15:26:13;11.80;99.90
20566;DHT22;10441;50.884;12.064;2022-10-19T15:28:44;11.70;1.00
20566;DHT22;10441;50.884;12.064;2022-10-19T15:31:16;11.80;1.00
20566;DHT22;10441;50.884;12.064;2022-10-19T16:32:54;10.90;1.00
20566;DHT22;10441;50.884;12.064;2022-10-19T16:35:22;10.90;1.00
20566;DHT22;10441;50.884;12.064;2022-10-19T16:37:57;10.90;1.00
20566;DHT22;10441;50.884;12.064;2022-10-19T16:40:59;10.80;1.00
20566;DHT22;10441;50.884;12.064;2022-10-19T16:43:38;10.80;1.00
20566;DHT22;10441;50.884;12.064;2022-10-19T16:46:22;10.80;1.00
20566;DHT22;10441;50.884;12.064;2022-10-19T16:48:51;10.80;1.00
20566;DHT22;10441;50.884;12.064;2022-10-19T16:51:32;10.90;1.00
20566;DHT22;10441;50.884;12.064;2022-10-19T16:54:02;10.90;1.00
20566;DHT22;10441;50.884;12.064;2022-10-19T16:56:31;10.90;1.00
20566;DHT22;10441;50.884;12.064;2022-10-19T16:58:58;10.90;1.00
20566;DHT22;10441;50.884;12.064;2022-10-19T17:01:26;10.80;1.00
20566;DHT22;10441;50.884;12.064;2022-10-19T17:03:55;10.90;1.00
20566;DHT22;10441;50.884;12.064;2022-10-19T17:06:22;10.90;1.00
20566;DHT22;10441;50.884;12.064;2022-10-19T17:08:49;10.90;1.00
20566;DHT22;10441;50.884;12.064;2022-10-19T17:11:16;10.90;1.00
20566;DHT22;10441;50.884;12.064;2022-10-19T17:13:44;10.90;1.00
20566;DHT22;10441;50.884;12.064;2022-10-19T17:16:12;10.90;1.00
20566;DHT22;10441;50.884;12.064;2022-10-19T17:18:40;10.80;1.00
20566;DHT22;10441;50.884;12.064;2022-10-19T17:21:10;10.90;1.00
20566;DHT22;10441;50.884;12.064;2022-10-19T17:23:37;10.80;1.00
20566;DHT22;10441;50.884;12.064;2022-10-19T17:26:05;10.80;1.00
20566;DHT22;10441;50.884;12.064;2022-10-19T17:28:34;10.80;1.00
20566;DHT22;10441;50.884;12.064;2022-10-19T17:31:02;10.80;1.00
20566;DHT22;10441;50.884;12.064;2022-10-19T17:33:29;10.80;1.00
20566;DHT22;10441;50.884;12.064;2022-10-19T17:36:01;10.70;1.00
20566;DHT22;10441;50.884;12.064;2022-10-19T17:38:29;10.60;1.00
20566;DHT22;10441;50.884;12.064;2022-10-19T17:41:02;10.60;1.00
20566;DHT22;10441;50.884;12.064;2022-10-19T17:43:30;10.60;1.00
20566;DHT22;10441;50.884;12.064;2022-10-19T17:45:58;10.50;1.00
20566;DHT22;10441;50.884;12.064;2022-10-19T17:48:26;10.50;1.00
20566;DHT22;10441;50.884;12.064;2022-10-19T17:50:58;10.50;1.00
20566;DHT22;10441;50.884;12.064;2022-10-19T17:53:25;10.50;1.00
20566;DHT22;10441;50.884;12.064;2022-10-19T17:55:54;10.50;1.00
20566;DHT22;10441;50.884;12.064;2022-10-19T17:58:21;10.50;1.00
20566;DHT22;10441;50.884;12.064;2022-10-19T18:00:52;10.40;1.00
20566;DHT22;10441;50.884;12.064;2022-10-19T18:03:22;10.20;1.00
20566;DHT22;10441;50.884;12.064;2022-10-19T18:05:57;10.10;1.00
20566;DHT22;10441;50.884;12.064;2022-10-19T18:08:28;10.10;1.00
20566;DHT22;10441;50.884;12.064;2022-10-19T18:11:00;10.10;1.00
20566;DHT22;10441;50.884;12.064;2022-10-19T18:13:31;10.00;1.00
20566;DHT22;10441;50.884;12.064;2022-10-19T18:15:59;9.90;1.00
20566;DHT22;10441;50.884;12.064;2022-10-19T18:18:27;9.50;1.00
20566;DHT22;10441;50.884;12.064;2022-10-19T18:20:54;9.30;1.00
20566;DHT22;10441;50.884;12.064;2022-10-19T18:23:25;9.20;1.00
20566;DHT22;10441;50.884;12.064;2022-10-19T18:25:54;9.10;1.00
20566;DHT22;10441;50.884;12.064;2022-10-19T18:28:25;8.80;1.00
20566;DHT22;10441;50.884;12.064;2022-10-19T18:30:53;8.60;1.00
20566;DHT22;10441;50.884;12.064;2022-10-19T19:35:26;6.20;60.50
20566;DHT22;10441;50.884;12.064;2022-10-19T19:38:13;6.10;99.90
20566;DHT22;10441;50.884;12.064;2022-10-19T19:40:41;7.30;99.90
20566;DHT22;10441;50.884;12.064;2022-10-19T19:43:13;6.00;99.90
20566;DHT22;10441;50.884;12.064;2022-10-19T19:45:58;5.90;1.00
20566;DHT22;10441;50.884;12.064;2022-10-19T19:48:28;5.90;1.00
20566;DHT22;10441;50.884;12.064;2022-10-19T19:50:59;5.80;1.00
20566;DHT22;10441;50.884;12.064;2022-10-19T19:53:26;5.80;1.00
20566;DHT22;10441;50.884;12.064;2022-10-19T19:56:04;5.90;99.90
20566;DHT22;10441;50.884;12.064;2022-10-19T19:58:34;5.80;1.00
20566;DHT22;10441;50.884;12.064;2022-10-19T20:01:06;5.80;39.20
20566;DHT22;10441;50.884;12.064;2022-10-19T20:03:35;6.40;13.60
20566;DHT22;10441;50.884;12.064;2022-10-19T20:06:08;5.60;74.90
20566;DHT22;10441;50.884;12.064;2022-10-19T20:08:39;5.60;75.60
20566;DHT22;10441;50.884;12.064;2022-10-19T20:11:08;5.50;99.90
20566;DHT22;10441;50.884;12.064;2022-10-19T20:13:37;5.40;84.00
20566;DHT22;10441;50.884;12.064;2022-10-19T20:16:22;5.60;99.90
20566;DHT22;10441;50.884;12.064;2022-10-19T20:19:07;5.50;99.90
20566;DHT22;10441;50.884;12.064;2022-10-19T20:21:37;5.50;99.90
20566;DHT22;10441;50.884;12.064;2022-10-19T20:24:05;5.40;99.90
20566;DHT22;10441;50.884;12.064;2022-10-19T20:26:34;5.40;99.90
20566;DHT22;10441;50.884;12.064;2022-10-19T20:29:02;5.40;99.90
20566;DHT22;10441;50.884;12.064;2022-10-19T20:31:34;5.30;99.90
20566;DHT22;10441;50.884;12.064;2022-10-19T20:34:05;5.40;99.90
20566;DHT22;10441;50.884;12.064;2022-10-19T20:36:33;5.30;99.90
20566;DHT22;10441;50.884;12.064;2022-10-19T20:39:12;5.40;99.90
20566;DHT22;10441;50.884;12.064;2022-10-19T20:41:42;5.40;99.90
20566;DHT22;10441;50.884;12.064;2022-10-19T20:44:09;5.30;99.90
20566;DHT22;10441;50.884;12.064;2022-10-19T20:46:40;5.30;99.90
20566;DHT22;10441;50.884;12.064;2022-10-19T20:49:11;5.30;99.90
20566;DHT22;10441;50.884;12.064;2022-10-19T20:51:42;5.30;99.90
20566;DHT22;10441;50.884;12.064;2022-10-19T20:54:14;5.40;99.90
20566;DHT22;10441;50.884;12.064;2022-10-19T20:56:41;5.40;99.90
20566;DHT22;10441;50.884;12.064;2022-10-19T20:59:10;5.40;99.90
20566;DHT22;10441;50.884;12.064;2022-10-19T21:01:47;5.40;99.90
20566;DHT22;10441;50.884;12.064;2022-10-19T21:04:32;5.40;99.90
20566;DHT22;10441;50.884;12.064;2022-10-19T21:07:17;5.30;99.90
20566;DHT22;10441;50.884;12.064;2022-10-19T21:09:50;5.40;99.90
20566;DHT22;10441;50.884;12.064;2022-10-19T21:12:17;5.20;99.90
20566;DHT22;10441;50.884;12.064;2022-10-19T21:14:45;5.30;99.90
20566;DHT22;10441;50.884;12.064;2022-10-19T21:17:13;5.10;99.90
20566;DHT22;10441;50.884;12.064;2022-10-19T21:19:42;5.10;99.90
20566;DHT22;10441;50.884;12.064;2022-10-19T21:22:10;2.80;99.90
20566;DHT22;10441;50.884;12.064;2022-10-19T21:24:43;4.20;99.90
20566;DHT22;10441;50.884;12.064;2022-10-19T21:27:18;5.10;99.90
20566;DHT22;10441;50.884;12.064;2022-10-19T21:29:48;5.10;99.90
20566;DHT22;10441;50.884;12.064;2022-10-19T21:32:17;4.90;99.90
20566;DHT22;10441;50.884;12.064;2022-10-19T22:35:58;4.60;99.90
20566;DHT22;10441;50.884;12.064;2022-10-19T22:38:27;4.60;99.90
20566;DHT22;10441;50.884;12.064;2022-10-19T22:40:55;4.60;99.90
20566;DHT22;10441;50.884;12.064;2022-10-19T22:43:23;4.50;99.90
20566;DHT22;10441;50.884;12.064;2022-10-19T22:45:52;4.50;99.90
20566;DHT22;10441;50.884;12.064;2022-10-19T22:48:19;4.40;99.90
20566;DHT22;10441;50.884;12.064;2022-10-19T22:50:46;4.20;99.90
20566;DHT22;10441;50.884;12.064;2022-10-19T22:53:15;4.20;99.90
20566;DHT22;10441;50.884;12.064;2022-10-19T22:55:43;4.30;99.90
20566;DHT22;10441;50.884;12.064;2022-10-19T22:58:10;4.50;99.90
20566;DHT22;10441;50.884;12.064;2022-10-19T23:00:39;4.30;99.90
20566;DHT22;10441;50.884;12.064;2022-10-19T23:03:06;4.10;99.90
20566;DHT22;10441;50.884;12.064;2022-10-19T23:05:37;4.20;99.90
20566;DHT22;10441;50.884;12.064;2022-10-19T23:08:04;4.20;99.90
20566;DHT22;10441;50.884;12.064;2022-10-19T23:10:32;4.40;99.90
20566;DHT22;10441;50.884;12.064;2022-10-19T23:13:02;4.40;99.90
20566;DHT22;10441;50.884;12.064;2022-10-19T23:15:33;4.20;99.90
20566;DHT22;10441;50.884;12.064;2022-10-19T23:18:01;4.10;99.90
20566;DHT22;10441;50.884;12.064;2022-10-19T23:20:29;4.00;99.90
20566;DHT22;10441;50.884;12.064;2022-10-19T23:22:57;4.10;99.90
20566;DHT22;10441;50.884;12.064;2022-10-19T23:25:25;4.00;99.90
20566;DHT22;10441;50.884;12.064;2022-10-19T23:27:55;4.00;99.90
20566;DHT22;10441;50.884;12.064;2022-10-19T23:30:23;4.00;99.90
20566;DHT22;10441;50.884;12.064;2022-10-19T23:32:51;4.00;99.90
